Time;durP1;ratioP1;P1;durP2;ratioP2;P2;SDS_P1;SDS_P2;PMS_P1;PMS_P2;Temp;Humidity;BMP_temperature;BMP_pressure;BME280_temperature;BME280_humidity;BME280_pressure;Samples;Min_cycle;Max_cycle;Signal;HPM_P1;HPM_P2
2021/11/19 00:01:29;;;;;;;34.72;12.07;;;;;;;;;;5068408;28;20017;-90
2021/11/19 00:03:55;;;;;;;38.00;12.68;;;;;;;;;;5035290;28;20362;-90
2021/11/19 00:06:20;;;;;;;32.40;12.15;;;;;;;;;;5050063;28;20028;-91
2021/11/19 00:08:47;;;;;;;32.05;12.63;;;;;;;;;;5042791;28;20025;-90
2021/11/19 00:11:14;;;;;;;33.20;12.43;;;;;;;;;;5055036;28;20025;-89
2021/11/19 00:13:40;;;;;;;31.80;13.45;;;;;;;;;;5027397;28;20441;-90
2021/11/19 00:16:05;;;;;;;38.00;13.07;;;;;;;;;;5043100;28;20053;-90
2021/11/19 00:18:31;;;;;;;28.33;12.80;;;;;;;;;;5052735;28;20067;-89
2021/11/19 00:20:56;;;;;;;39.03;12.85;;;;;;;;;;5052765;28;20013;-90
2021/11/19 00:23:22;;;;;;;35.95;12.82;;;;;;;;;;5039243;28;20054;-90
2021/11/19 00:25:47;;;;;;;29.92;13.18;;;;;;;;;;5042629;28;20380;-90
2021/11/19 00:28:12;;;;;;;31.17;12.82;;;;;;;;;;5054658;28;20044;-89
2021/11/19 00:30:39;;;;;;;43.58;13.32;;;;;;;;;;5041088;28;20040;-90
2021/11/19 00:33:05;;;;;;;39.47;13.23;;;;;;;;;;5042767;28;20026;-91
2021/11/19 00:35:30;;;;;;;37.42;13.13;;;;;;;;;;5053636;28;20480;-91
2021/11/19 00:37:56;;;;;;;34.08;12.85;;;;;;;;;;5054896;28;20105;-90
2021/11/19 00:40:27;;;;;;;31.75;13.60;;;;;;;;;;5040466;28;20026;-90
2021/11/19 00:42:53;;;;;;;33.28;13.15;;;;;;;;;;5054423;28;20484;-91
2021/11/19 00:45:20;;;;;;;36.33;15.13;;;;;;;;;;5040812;28;20018;-91
2021/11/19 00:47:46;;;;;;;32.17;13.07;;;;;;;;;;5047756;28;20022;-90
2021/11/19 00:50:11;;;;;;;37.33;12.40;;;;;;;;;;5047126;28;20528;-90
2021/11/19 00:52:36;;;;;;;31.05;12.50;;;;;;;;;;5055117;28;20021;-91
2021/11/19 00:55:02;;;;;;;39.08;13.48;;;;;;;;;;5054293;28;20023;-91
2021/11/19 00:57:28;;;;;;;30.38;14.20;;;;;;;;;;5054199;28;20036;-90
2021/11/19 00:59:53;;;;;;;27.13;12.45;;;;;;;;;;5040022;28;20016;-91
2021/11/19 01:02:20;;;;;;;34.78;13.20;;;;;;;;;;5054080;28;20021;-90
2021/11/19 01:04:45;;;;;;;31.25;12.32;;;;;;;;;;5040038;28;20021;-90
2021/11/19 01:07:11;;;;;;;30.55;12.43;;;;;;;;;;5053727;28;20021;-90
2021/11/19 01:09:39;;;;;;;33.60;12.15;;;;;;;;;;5040888;28;20100;-90
2021/11/19 01:12:06;;;;;;;32.40;13.05;;;;;;;;;;5053835;28;20067;-91
2021/11/19 01:14:40;;;;;;;33.63;13.30;;;;;;;;;;5053923;28;20032;-91
2021/11/19 01:17:07;;;;;;;28.20;12.73;;;;;;;;;;5045778;28;20026;-90
2021/11/19 01:19:39;;;;;;;34.80;12.25;;;;;;;;;;5054878;28;20364;-90
2021/11/19 01:22:08;;;;;;;35.50;13.23;;;;;;;;;;5039651;28;20419;-91
2021/11/19 01:24:34;;;;;;;30.65;12.50;;;;;;;;;;5053692;28;20021;-90
2021/11/19 01:26:59;;;;;;;27.40;11.85;;;;;;;;;;5053560;28;20377;-91
2021/11/19 01:29:24;;;;;;;32.00;12.23;;;;;;;;;;5044006;28;20043;-90
2021/11/19 01:31:52;;;;;;;37.25;12.70;;;;;;;;;;5047446;28;20082;-90
2021/11/19 01:34:17;;;;;;;31.73;14.48;;;;;;;;;;5033380;28;20031;-90
2021/11/19 01:36:43;;;;;;;36.92;14.00;;;;;;;;;;5033657;28;20389;-92
2021/11/19 01:39:10;;;;;;;35.42;14.50;;;;;;;;;;5040164;28;20021;-90
2021/11/19 01:41:44;;;;;;;31.67;13.90;;;;;;;;;;5052624;28;20024;-90
2021/11/19 01:44:12;;;;;;;34.42;12.77;;;;;;;;;;5034638;28;20032;-90
2021/11/19 01:46:41;;;;;;;33.15;12.60;;;;;;;;;;5044836;28;20385;-91
2021/11/19 01:49:06;;;;;;;33.05;13.80;;;;;;;;;;5049530;28;20025;-91
2021/11/19 01:51:44;;;;;;;33.63;12.80;;;;;;;;;;5034110;28;20578;-90
2021/11/19 01:54:12;;;;;;;33.72;13.68;;;;;;;;;;5084102;28;20032;-90
2021/11/19 01:56:38;;;;;;;34.65;14.40;;;;;;;;;;5052971;28;20098;-90
2021/11/19 01:59:08;;;;;;;38.22;14.68;;;;;;;;;;5053165;28;20461;-90
2021/11/19 02:01:36;;;;;;;39.50;14.00;;;;;;;;;;5052703;28;20113;-90
2021/11/19 02:04:05;;;;;;;27.60;14.25;;;;;;;;;;5053247;28;20472;-90
2021/11/19 02:06:40;;;;;;;33.88;13.43;;;;;;;;;;5052736;28;20033;-90
2021/11/19 02:09:07;;;;;;;41.22;15.00;;;;;;;;;;5042706;28;20030;-90
2021/11/19 02:11:51;;;;;;;34.13;12.07;;;;;;;;;;5047336;28;20384;-90
2021/11/19 02:14:19;;;;;;;32.38;12.82;;;;;;;;;;5032897;28;20033;-91
2021/11/19 02:16:53;;;;;;;36.17;14.77;;;;;;;;;;5050246;28;20015;-91
2021/11/19 02:19:21;;;;;;;31.75;13.45;;;;;;;;;;5042529;28;20408;-90
2021/11/19 02:21:51;;;;;;;33.65;13.45;;;;;;;;;;5045782;28;20025;-91
2021/11/19 02:24:19;;;;;;;39.47;13.20;;;;;;;;;;5064145;28;20049;-90
2021/11/19 02:26:54;;;;;;;36.58;13.40;;;;;;;;;;5032927;28;20060;-91
2021/11/19 02:29:21;;;;;;;34.30;13.85;;;;;;;;;;5033969;28;20076;-91
2021/11/19 02:31:49;;;;;;;39.92;14.25;;;;;;;;;;5033021;28;20033;-91
2021/11/19 02:34:15;;;;;;;35.55;14.85;;;;;;;;;;5032620;28;20465;-91
2021/11/19 02:36:45;;;;;;;32.05;14.00;;;;;;;;;;5038493;28;20013;-91
2021/11/19 02:39:23;;;;;;;30.77;13.38;;;;;;;;;;5036884;28;20025;-90
2021/11/19 02:41:50;;;;;;;34.53;14.50;;;;;;;;;;5032849;28;20024;-91
2021/11/19 02:44:18;;;;;;;37.42;14.23;;;;;;;;;;5032619;28;20025;-91
2021/11/19 02:46:46;;;;;;;33.05;13.95;;;;;;;;;;5032730;28;20048;-90
2021/11/19 02:49:12;;;;;;;31.85;13.13;;;;;;;;;;5032732;28;20026;-90
2021/11/19 02:51:37;;;;;;;32.72;13.98;;;;;;;;;;5032609;28;20068;-92
2021/11/19 02:54:04;;;;;;;38.45;15.07;;;;;;;;;;5033261;28;20104;-90
2021/11/19 02:56:30;;;;;;;37.72;15.52;;;;;;;;;;5036399;28;20044;-90
2021/11/19 02:58:56;;;;;;;41.75;14.23;;;;;;;;;;5037544;28;20018;-90
2021/11/19 03:01:36;;;;;;;32.60;14.95;;;;;;;;;;5069588;28;20377;-91
2021/11/19 03:04:04;;;;;;;34.92;14.50;;;;;;;;;;5037440;28;20036;-91
2021/11/19 03:06:40;;;;;;;33.20;14.63;;;;;;;;;;5022278;28;20112;-90
2021/11/19 03:09:06;;;;;;;36.03;16.08;;;;;;;;;;5036365;28;20072;-90
2021/11/19 03:11:32;;;;;;;38.35;15.25;;;;;;;;;;5036177;28;20056;-90
2021/11/19 03:13:57;;;;;;;40.72;15.93;;;;;;;;;;5036288;28;20037;-90
2021/11/19 03:16:23;;;;;;;38.70;14.80;;;;;;;;;;5036017;28;20022;-92
2021/11/19 03:18:48;;;;;;;36.50;15.68;;;;;;;;;;5037271;28;20453;-90
2021/11/19 03:21:15;;;;;;;38.70;15.80;;;;;;;;;;5036044;28;20511;-90
2021/11/19 03:23:41;;;;;;;44.88;16.60;;;;;;;;;;5035870;28;20464;-90
2021/11/19 03:26:06;;;;;;;35.10;14.82;;;;;;;;;;5025645;28;20044;-90
2021/11/19 03:28:32;;;;;;;35.28;15.27;;;;;;;;;;5035947;28;20476;-90
2021/11/19 03:30:59;;;;;;;41.90;14.68;;;;;;;;;;5035816;28;20032;-91
2021/11/19 03:33:26;;;;;;;39.72;15.70;;;;;;;;;;5035572;28;20036;-90
2021/11/19 03:35:52;;;;;;;36.60;15.38;;;;;;;;;;5036796;28;20014;-91
2021/11/19 03:38:18;;;;;;;30.98;13.95;;;;;;;;;;5035773;28;20428;-90
2021/11/19 03:40:44;;;;;;;40.53;15.77;;;;;;;;;;5035584;28;20021;-90
2021/11/19 03:43:11;;;;;;;35.58;16.75;;;;;;;;;;5035646;28;20061;-90
2021/11/19 03:45:41;;;;;;;34.70;15.32;;;;;;;;;;5035679;28;20025;-90
2021/11/19 03:48:06;;;;;;;37.05;16.15;;;;;;;;;;5035616;28;20037;-90
2021/11/19 03:50:43;;;;;;;38.25;16.02;;;;;;;;;;5035492;28;20445;-90
2021/11/19 03:53:09;;;;;;;39.40;16.17;;;;;;;;;;5035554;28;20037;-90
2021/11/19 03:55:35;;;;;;;39.05;16.40;;;;;;;;;;5052241;28;20366;-90
2021/11/19 03:58:04;;;;;;;40.28;17.02;;;;;;;;;;5036347;28;20033;-90
2021/11/19 04:00:41;;;;;;;39.22;16.63;;;;;;;;;;5036384;28;20017;-90
2021/11/19 04:03:08;;;;;;;37.20;16.55;;;;;;;;;;5035172;28;20029;-90
2021/11/19 04:05:33;;;;;;;39.13;17.13;;;;;;;;;;5034294;28;20022;-90
2021/11/19 04:07:58;;;;;;;35.55;16.27;;;;;;;;;;5034960;28;20033;-90
2021/11/19 04:10:24;;;;;;;34.10;15.63;;;;;;;;;;5026610;28;20045;-91
2021/11/19 04:12:49;;;;;;;42.50;17.17;;;;;;;;;;5029795;28;20022;-90
2021/11/19 04:15:21;;;;;;;37.92;16.00;;;;;;;;;;5035046;28;20018;-91
2021/11/19 04:17:46;;;;;;;41.05;16.30;;;;;;;;;;5035026;28;20087;-90
2021/11/19 04:20:12;;;;;;;41.25;16.95;;;;;;;;;;5046779;28;20528;-90
2021/11/19 04:22:38;;;;;;;42.42;14.73;;;;;;;;;;5035063;28;20048;-90
2021/11/19 04:25:05;;;;;;;44.20;17.15;;;;;;;;;;5034884;28;20021;-91
2021/11/19 04:27:31;;;;;;;43.22;15.13;;;;;;;;;;5034814;28;20017;-90
2021/11/19 04:29:56;;;;;;;39.58;15.50;;;;;;;;;;5035859;28;20029;-90
2021/11/19 04:32:22;;;;;;;35.45;14.07;;;;;;;;;;5034705;28;20028;-90
2021/11/19 04:34:48;;;;;;;43.67;16.15;;;;;;;;;;5035921;28;20024;-91
2021/11/19 04:37:13;;;;;;;44.13;16.70;;;;;;;;;;5034518;28;20047;-91
2021/11/19 04:39:38;;;;;;;42.22;15.57;;;;;;;;;;5035102;28;20016;-91
2021/11/19 04:42:03;;;;;;;34.40;16.00;;;;;;;;;;5034670;28;20377;-90
2021/11/19 04:44:29;;;;;;;39.38;15.30;;;;;;;;;;5034498;28;20100;-91
2021/11/19 04:46:54;;;;;;;37.55;15.13;;;;;;;;;;5034750;28;20032;-90
2021/11/19 04:49:19;;;;;;;38.15;16.25;;;;;;;;;;5038870;28;20025;-91
2021/11/19 04:51:46;;;;;;;41.03;15.30;;;;;;;;;;5034488;28;20532;-91
2021/11/19 04:54:11;;;;;;;35.25;16.35;;;;;;;;;;5034216;28;20023;-91
2021/11/19 04:56:38;;;;;;;32.53;14.75;;;;;;;;;;5035383;28;20009;-90
2021/11/19 04:59:04;;;;;;;33.03;15.10;;;;;;;;;;5034449;28;20354;-91
2021/11/19 05:01:33;;;;;;;40.45;15.52;;;;;;;;;;5034277;28;20017;-90
2021/11/19 05:03:58;;;;;;;36.90;16.33;;;;;;;;;;5034064;28;20033;-90
2021/11/19 05:06:23;;;;;;;32.35;15.18;;;;;;;;;;5033875;28;20025;-90
2021/11/19 05:08:49;;;;;;;32.42;14.52;;;;;;;;;;5034125;28;20036;-91
2021/11/19 05:11:16;;;;;;;34.15;15.10;;;;;;;;;;5034123;28;20025;-91
2021/11/19 05:13:41;;;;;;;31.55;14.98;;;;;;;;;;5033921;28;20039;-90
2021/11/19 05:16:09;;;;;;;30.55;13.90;;;;;;;;;;5034062;28;20101;-91
2021/11/19 05:18:34;;;;;;;34.80;15.10;;;;;;;;;;5020161;28;20017;-89
2021/11/19 05:21:00;;;;;;;37.65;15.15;;;;;;;;;;5033978;28;20513;-90
2021/11/19 05:23:25;;;;;;;39.17;16.70;;;;;;;;;;5046144;28;20056;-90
2021/11/19 05:25:51;;;;;;;30.75;13.15;;;;;;;;;;5033657;28;20021;-90
2021/11/19 05:28:17;;;;;;;30.13;15.07;;;;;;;;;;5033671;28;20488;-91
2021/11/19 05:30:43;;;;;;;31.20;14.57;;;;;;;;;;5033620;28;20022;-90
2021/11/19 05:33:09;;;;;;;32.47;14.88;;;;;;;;;;5033626;28;20112;-91
2021/11/19 05:35:35;;;;;;;33.60;14.30;;;;;;;;;;5033462;28;20017;-91
2021/11/19 05:38:00;;;;;;;36.60;13.65;;;;;;;;;;5034781;28;20036;-90
2021/11/19 05:40:26;;;;;;;32.63;13.88;;;;;;;;;;5033512;28;20056;-90
2021/11/19 05:42:52;;;;;;;32.05;13.70;;;;;;;;;;5034546;28;20025;-90
2021/11/19 05:45:18;;;;;;;31.85;14.60;;;;;;;;;;5022752;28;20026;-91
2021/11/19 05:47:43;;;;;;;30.42;14.48;;;;;;;;;;5064709;28;20017;-90
2021/11/19 05:50:10;;;;;;;29.80;14.07;;;;;;;;;;5033378;28;20034;-91
2021/11/19 05:52:35;;;;;;;33.33;14.73;;;;;;;;;;5033043;28;20365;-90
2021/11/19 05:55:02;;;;;;;32.83;14.52;;;;;;;;;;5033318;28;20017;-90
2021/11/19 05:57:28;;;;;;;31.30;13.57;;;;;;;;;;5033181;28;20018;-91
2021/11/19 05:59:54;;;;;;;30.95;14.48;;;;;;;;;;5026898;28;20057;-92
2021/11/19 06:02:20;;;;;;;26.23;14.30;;;;;;;;;;5025440;28;20041;-91
2021/11/19 06:04:45;;;;;;;33.30;14.07;;;;;;;;;;5066393;28;20009;-91
2021/11/19 06:07:10;;;;;;;32.95;15.13;;;;;;;;;;5032979;28;20492;-90
2021/11/19 06:09:40;;;;;;;35.08;15.27;;;;;;;;;;5033045;28;20021;-90
2021/11/19 06:12:08;;;;;;;32.13;14.38;;;;;;;;;;5033055;28;20026;-90
2021/11/19 06:14:36;;;;;;;29.23;13.85;;;;;;;;;;5032990;28;20013;-91
2021/11/19 06:17:03;;;;;;;32.22;13.68;;;;;;;;;;5033040;28;20018;-91
2021/11/19 06:19:30;;;;;;;30.90;14.88;;;;;;;;;;5032961;28;20024;-90
2021/11/19 06:21:58;;;;;;;37.00;17.50;;;;;;;;;;5032755;28;20021;-91
2021/11/19 06:24:27;;;;;;;39.92;17.83;;;;;;;;;;5032964;28;20113;-91
2021/11/19 06:26:52;;;;;;;30.13;14.82;;;;;;;;;;5032797;28;20484;-91
2021/11/19 06:29:18;;;;;;;30.45;14.77;;;;;;;;;;5025271;28;20022;-90
2021/11/19 06:31:44;;;;;;;34.78;17.17;;;;;;;;;;5038171;28;20047;-90
2021/11/19 06:34:10;;;;;;;29.88;13.60;;;;;;;;;;5041459;28;20026;-91
2021/11/19 06:36:36;;;;;;;32.83;13.93;;;;;;;;;;5039586;28;20112;-91
2021/11/19 06:39:03;;;;;;;30.73;14.35;;;;;;;;;;5039173;28;20022;-90
2021/11/19 06:41:28;;;;;;;29.73;13.95;;;;;;;;;;5039386;28;20021;-90
2021/11/19 06:43:54;;;;;;;30.05;14.05;;;;;;;;;;5038692;28;20026;-90
2021/11/19 06:46:21;;;;;;;31.33;14.63;;;;;;;;;;5025964;28;20027;-89
2021/11/19 06:48:46;;;;;;;34.05;14.55;;;;;;;;;;5040344;28;20051;-90
2021/11/19 06:51:12;;;;;;;36.45;14.90;;;;;;;;;;5040298;28;20053;-90
2021/11/19 06:53:37;;;;;;;32.47;14.63;;;;;;;;;;5039137;28;20045;-90
2021/11/19 06:56:03;;;;;;;31.65;14.02;;;;;;;;;;5039033;28;20051;-90
2021/11/19 06:58:28;;;;;;;27.67;15.00;;;;;;;;;;5039412;28;20024;-91
2021/11/19 07:00:55;;;;;;;33.67;15.25;;;;;;;;;;5039174;28;20469;-90
2021/11/19 07:03:20;;;;;;;33.65;16.15;;;;;;;;;;5050063;28;20022;-90
2021/11/19 07:05:45;;;;;;;33.92;15.85;;;;;;;;;;5038941;28;20036;-90
2021/11/19 07:08:11;;;;;;;33.95;14.75;;;;;;;;;;5039096;28;20032;-91
2021/11/19 07:10:37;;;;;;;30.60;14.65;;;;;;;;;;5038965;28;20021;-90
2021/11/19 07:13:03;;;;;;;34.45;16.52;;;;;;;;;;5038660;28;20022;-90
2021/11/19 07:15:29;;;;;;;30.23;14.73;;;;;;;;;;5040270;28;20124;-90
2021/11/19 07:17:55;;;;;;;34.67;15.43;;;;;;;;;;5038966;28;20072;-90
2021/11/19 07:20:22;;;;;;;30.10;14.35;;;;;;;;;;5038705;28;20017;-89
2021/11/19 07:22:47;;;;;;;26.27;13.70;;;;;;;;;;5038892;28;20087;-89
2021/11/19 07:25:14;;;;;;;35.75;15.13;;;;;;;;;;5039733;28;20025;-89
2021/11/19 07:27:40;;;;;;;35.17;15.18;;;;;;;;;;5038524;28;20074;-89
2021/11/19 07:30:10;;;;;;;33.15;14.75;;;;;;;;;;5038465;28;20083;-89
2021/11/19 07:32:36;;;;;;;33.05;16.20;;;;;;;;;;5038231;28;20404;-89
2021/11/19 07:35:03;;;;;;;33.63;14.98;;;;;;;;;;5038349;28;20032;-89
2021/11/19 07:37:28;;;;;;;33.60;16.15;;;;;;;;;;5038247;28;20024;-89
2021/11/19 07:39:53;;;;;;;36.80;15.57;;;;;;;;;;5038065;28;20014;-89
2021/11/19 07:42:19;;;;;;;35.40;14.90;;;;;;;;;;5034117;28;20038;-89
2021/11/19 07:44:44;;;;;;;39.60;15.75;;;;;;;;;;5035260;28;20018;-89
2021/11/19 07:47:09;;;;;;;37.28;16.42;;;;;;;;;;5035480;28;20022;-89
2021/11/19 07:49:37;;;;;;;32.53;17.52;;;;;;;;;;5035104;28;20071;-89
2021/11/19 07:52:03;;;;;;;34.80;15.48;;;;;;;;;;5034980;28;20469;-89
2021/11/19 07:54:28;;;;;;;36.30;16.73;;;;;;;;;;5067968;28;20033;-89
2021/11/19 07:56:53;;;;;;;32.67;14.77;;;;;;;;;;5034910;28;20021;-89
2021/11/19 07:59:29;;;;;;;31.70;15.13;;;;;;;;;;5034911;28;20029;-89
2021/11/19 08:01:59;;;;;;;34.22;15.57;;;;;;;;;;5034968;28;20056;-89
2021/11/19 08:04:26;;;;;;;34.47;16.65;;;;;;;;;;5020977;28;20033;-89
2021/11/19 08:06:51;;;;;;;36.25;15.32;;;;;;;;;;5034565;28;20041;-89
2021/11/19 08:09:16;;;;;;;39.95;17.38;;;;;;;;;;5034906;28;20380;-89
2021/11/19 08:11:42;;;;;;;36.17;17.73;;;;;;;;;;5034793;28;20028;-89
2021/11/19 08:14:07;;;;;;;33.80;16.55;;;;;;;;;;5036789;28;20412;-89
2021/11/19 08:16:37;;;;;;;38.20;17.05;;;;;;;;;;5067824;28;20095;-90
2021/11/19 08:19:03;;;;;;;43.65;18.20;;;;;;;;;;5034613;28;20021;-89
2021/11/19 08:21:29;;;;;;;36.83;17.13;;;;;;;;;;5034493;28;20024;-89
2021/11/19 08:24:00;;;;;;;33.83;15.35;;;;;;;;;;5034603;28;20088;-89
2021/11/19 08:26:30;;;;;;;41.17;17.50;;;;;;;;;;5042049;28;20017;-89
2021/11/19 08:28:56;;;;;;;37.90;16.27;;;;;;;;;;5034326;28;20021;-90
2021/11/19 08:31:23;;;;;;;36.38;16.00;;;;;;;;;;5034989;28;20037;-89
2021/11/19 08:33:49;;;;;;;34.05;15.77;;;;;;;;;;5034178;28;20022;-90
2021/11/19 08:36:15;;;;;;;44.95;17.80;;;;;;;;;;5034283;28;20385;-89
2021/11/19 08:38:42;;;;;;;35.97;17.30;;;;;;;;;;5020828;28;20029;-89
2021/11/19 08:41:08;;;;;;;35.92;16.00;;;;;;;;;;5034197;28;20018;-90
2021/11/19 08:43:34;;;;;;;41.90;16.38;;;;;;;;;;5023711;28;20040;-89
2021/11/19 08:46:01;;;;;;;39.50;16.52;;;;;;;;;;5031961;28;20627;-89
2021/11/19 08:48:27;;;;;;;38.00;17.70;;;;;;;;;;5035273;28;20130;-89
2021/11/19 08:50:53;;;;;;;42.67;18.90;;;;;;;;;;5034964;28;20076;-89
2021/11/19 08:53:18;;;;;;;44.17;18.13;;;;;;;;;;5033405;28;20110;-89
2021/11/19 08:55:45;;;;;;;41.03;18.05;;;;;;;;;;5033693;28;20025;-88
2021/11/19 08:58:14;;;;;;;41.78;17.40;;;;;;;;;;5032734;28;20021;-90
2021/11/19 09:00:40;;;;;;;42.67;18.08;;;;;;;;;;5035073;28;20025;-90
2021/11/19 09:03:07;;;;;;;40.28;17.60;;;;;;;;;;5033642;28;20408;-89
2021/11/19 09:05:33;;;;;;;42.67;16.88;;;;;;;;;;5033589;28;20052;-89
2021/11/19 09:07:59;;;;;;;44.17;20.05;;;;;;;;;;5034793;28;20033;-89
2021/11/19 09:10:24;;;;;;;43.72;19.92;;;;;;;;;;5033672;28;20408;-89
2021/11/19 09:12:50;;;;;;;37.92;17.88;;;;;;;;;;5033306;28;20392;-90
2021/11/19 09:15:16;;;;;;;38.40;18.02;;;;;;;;;;5033622;28;20264;-89
2021/11/19 09:17:54;;;;;;;38.95;19.52;;;;;;;;;;5033380;28;20017;-89
2021/11/19 09:20:35;;;;;;;37.75;18.30;;;;;;;;;;5020266;28;20385;-90
2021/11/19 09:23:05;;;;;;;40.05;17.92;;;;;;;;;;5047016;28;20056;-88
2021/11/19 09:25:32;;;;;;;43.97;18.90;;;;;;;;;;5033527;28;20024;-89
2021/11/19 09:27:57;;;;;;;46.55;17.23;;;;;;;;;;5033445;28;20070;-90
2021/11/19 09:30:26;;;;;;;42.15;19.02;;;;;;;;;;5032949;28;20100;-90
2021/11/19 09:32:52;;;;;;;38.00;17.83;;;;;;;;;;5033208;28;20536;-89
2021/11/19 09:35:19;;;;;;;36.88;16.27;;;;;;;;;;5033435;28;20024;-89
2021/11/19 09:37:46;;;;;;;45.90;18.08;;;;;;;;;;5025435;28;20107;-89
2021/11/19 09:40:12;;;;;;;48.88;17.50;;;;;;;;;;5034223;28;20014;-90
2021/11/19 09:42:54;;;;;;;39.90;17.80;;;;;;;;;;5032927;28;20018;-89
2021/11/19 09:45:38;;;;;;;45.80;17.80;;;;;;;;;;5033377;28;20100;-90
2021/11/19 09:48:22;;;;;;;39.72;18.58;;;;;;;;;;5046128;28;20029;-90
2021/11/19 09:51:06;;;;;;;46.88;19.83;;;;;;;;;;5033143;28;20033;-89
2021/11/19 09:53:47;;;;;;;40.60;15.98;;;;;;;;;;5032870;28;20025;-90
2021/11/19 09:56:31;;;;;;;46.20;19.88;;;;;;;;;;5032895;28;20159;-90
2021/11/19 09:58:59;;;;;;;44.35;17.83;;;;;;;;;;5032878;28;20392;-89
2021/11/19 10:01:43;;;;;;;47.08;18.35;;;;;;;;;;5028035;28;20014;-90
2021/11/19 10:04:27;;;;;;;44.33;17.42;;;;;;;;;;5027286;28;20440;-89
2021/11/19 10:07:00;;;;;;;39.83;17.58;;;;;;;;;;5020748;28;20035;-90
2021/11/19 10:09:45;;;;;;;46.30;20.45;;;;;;;;;;5032544;28;20508;-90
2021/11/19 10:12:16;;;;;;;43.75;18.60;;;;;;;;;;5033341;28;20034;-90
2021/11/19 10:14:48;;;;;;;41.50;18.13;;;;;;;;;;5032703;28;20049;-89
2021/11/19 10:17:22;;;;;;;44.92;18.98;;;;;;;;;;5041972;28;20034;-90
2021/11/19 10:19:59;;;;;;;44.25;18.75;;;;;;;;;;5032708;28;20021;-90
2021/11/19 10:22:35;;;;;;;43.20;19.73;;;;;;;;;;5033698;28;20487;-90
2021/11/19 10:25:04;;;;;;;48.10;19.30;;;;;;;;;;5032592;28;20021;-89
2021/11/19 10:27:31;;;;;;;42.20;19.45;;;;;;;;;;5033929;28;20030;-90
2021/11/19 10:30:03;;;;;;;43.90;19.67;;;;;;;;;;5032430;28;20029;-90
2021/11/19 10:32:30;;;;;;;44.08;18.55;;;;;;;;;;5032401;28;20017;-90
2021/11/19 10:35:13;;;;;;;45.45;19.83;;;;;;;;;;5032239;28;20049;-90
2021/11/19 10:37:53;;;;;;;50.28;19.60;;;;;;;;;;5032249;28;20028;-90
2021/11/19 10:40:37;;;;;;;44.90;19.02;;;;;;;;;;5032511;28;20022;-90
2021/11/19 10:43:03;;;;;;;46.72;19.52;;;;;;;;;;5020463;28;20025;-90
2021/11/19 10:45:42;;;;;;;40.53;19.27;;;;;;;;;;5032370;28;20035;-90
2021/11/19 10:48:23;;;;;;;44.97;19.98;;;;;;;;;;5029088;28;20060;-90
2021/11/19 10:51:07;;;;;;;42.17;20.15;;;;;;;;;;5023966;28;20029;-90
2021/11/19 10:53:41;;;;;;;43.60;19.35;;;;;;;;;;5033409;28;20072;-90
2021/11/19 10:56:06;;;;;;;43.72;19.50;;;;;;;;;;5032290;28;20469;-90
2021/11/19 10:58:31;;;;;;;45.28;21.00;;;;;;;;;;5032271;28;20020;-89
2021/11/19 11:01:00;;;;;;;42.10;19.00;;;;;;;;;;5018314;28;20433;-90
2021/11/19 11:03:30;;;;;;;42.90;16.85;;;;;;;;;;5032273;28;20104;-89
2021/11/19 11:06:06;;;;;;;45.55;20.50;;;;;;;;;;5031858;28;20029;-90
2021/11/19 11:08:51;;;;;;;47.10;21.42;;;;;;;;;;5032169;28;20437;-90
2021/11/19 11:11:19;;;;;;;46.03;21.17;;;;;;;;;;5031609;28;20520;-89
2021/11/19 11:14:02;;;;;;;49.60;18.90;;;;;;;;;;5033234;28;20028;-89
2021/11/19 11:16:29;;;;;;;44.70;18.50;;;;;;;;;;5034821;28;20017;-90
2021/11/19 11:18:54;;;;;;;49.53;20.52;;;;;;;;;;5035846;28;20021;-89
2021/11/19 11:21:28;;;;;;;43.38;19.42;;;;;;;;;;5036083;28;20028;-90
2021/11/19 11:24:03;;;;;;;54.30;22.52;;;;;;;;;;5035842;28;20104;-89
2021/11/19 11:26:46;;;;;;;49.38;20.27;;;;;;;;;;5036817;28;20021;-89
2021/11/19 11:29:18;;;;;;;44.72;18.83;;;;;;;;;;5035836;28;20026;-90
2021/11/19 11:31:46;;;;;;;46.03;19.27;;;;;;;;;;5035366;28;20029;-89
2021/11/19 11:34:15;;;;;;;41.03;20.35;;;;;;;;;;5035705;28;20278;-90
2021/11/19 11:36:46;;;;;;;40.15;19.45;;;;;;;;;;5035492;28;20381;-90
2021/11/19 11:39:13;;;;;;;42.00;18.98;;;;;;;;;;5035427;28;20424;-90
2021/11/19 11:41:41;;;;;;;41.65;20.20;;;;;;;;;;5035711;28;20100;-89
2021/11/19 11:44:09;;;;;;;42.83;19.58;;;;;;;;;;5036392;28;20025;-90
2021/11/19 11:46:40;;;;;;;45.08;19.02;;;;;;;;;;5036326;28;20029;-91
2021/11/19 11:49:20;;;;;;;43.15;19.05;;;;;;;;;;5035337;28;20021;-91
2021/11/19 11:51:45;;;;;;;40.72;18.90;;;;;;;;;;5035616;28;20032;-90
2021/11/19 11:54:10;;;;;;;41.70;19.35;;;;;;;;;;5035231;28;20033;-91
2021/11/19 11:56:46;;;;;;;43.25;20.02;;;;;;;;;;5035668;28;20026;-91
2021/11/19 11:59:31;;;;;;;39.17;18.10;;;;;;;;;;5034832;28;20014;-92
2021/11/19 12:01:59;;;;;;;40.42;19.20;;;;;;;;;;5034637;28;20036;-91
2021/11/19 12:04:59;;;;;;;40.35;21.08;;;;;;;;;;5035250;28;20436;-92
2021/11/19 12:07:37;;;;;;;42.35;18.48;;;;;;;;;;4978746;28;20061;-91
2021/11/19 12:10:02;;;;;;;36.78;18.85;;;;;;;;;;5016383;28;20378;-92
2021/11/19 12:12:32;;;;;;;38.08;18.83;;;;;;;;;;5034667;28;20024;-88
2021/11/19 12:15:00;;;;;;;38.05;17.55;;;;;;;;;;5035054;28;20017;-91
2021/11/19 12:17:34;;;;;;;37.03;17.35;;;;;;;;;;5035264;28;20072;-91
2021/11/19 12:20:03;;;;;;;39.20;17.30;;;;;;;;;;5034958;28;20017;-91
2021/11/19 12:22:40;;;;;;;39.47;18.17;;;;;;;;;;5035129;28;20120;-91
2021/11/19 12:25:24;;;;;;;40.17;17.40;;;;;;;;;;5034756;28;20025;-91
2021/11/19 12:27:51;;;;;;;31.60;16.10;;;;;;;;;;5034293;28;20022;-92
2021/11/19 12:30:20;;;;;;;33.42;15.95;;;;;;;;;;5034701;28;20035;-91
2021/11/19 12:32:48;;;;;;;35.58;17.17;;;;;;;;;;5034685;28;20026;-91
2021/11/19 12:35:14;;;;;;;32.42;15.80;;;;;;;;;;5067993;28;20022;-91
2021/11/19 12:37:57;;;;;;;30.33;13.98;;;;;;;;;;5034658;28;20021;-91
2021/11/19 12:40:23;;;;;;;32.90;15.05;;;;;;;;;;5034663;28;20021;-91
2021/11/19 12:43:08;;;;;;;28.90;15.77;;;;;;;;;;5039856;28;20017;-91
2021/11/19 12:45:36;;;;;;;31.23;15.25;;;;;;;;;;5029407;28;20505;-90
2021/11/19 12:48:13;;;;;;;25.08;14.57;;;;;;;;;;5034605;28;20068;-91
2021/11/19 12:50:47;;;;;;;27.80;15.55;;;;;;;;;;5034374;28;20047;-90
2021/11/19 12:53:18;;;;;;;30.60;15.63;;;;;;;;;;5034378;28;20049;-91
2021/11/19 12:56:02;;;;;;;31.80;14.85;;;;;;;;;;5034361;28;20021;-89
2021/11/19 12:58:30;;;;;;;28.05;14.05;;;;;;;;;;5043429;28;20060;-91
2021/11/19 13:01:11;;;;;;;25.83;14.65;;;;;;;;;;5040512;28;20459;-91
2021/11/19 13:03:52;;;;;;;28.67;13.73;;;;;;;;;;5034394;28;20476;-92
2021/11/19 13:06:27;;;;;;;25.95;13.75;;;;;;;;;;5034033;28;20027;-91
2021/11/19 13:09:15;;;;;;;25.02;13.23;;;;;;;;;;5043293;28;20021;-91
2021/11/19 13:11:49;;;;;;;21.25;10.98;;;;;;;;;;5035378;28;20022;-91
2021/11/19 13:14:27;;;;;;;23.63;12.38;;;;;;;;;;5034094;28;20028;-91
2021/11/19 13:16:54;;;;;;;28.73;11.70;;;;;;;;;;5034108;28;20010;-90
2021/11/19 13:19:28;;;;;;;22.58;12.65;;;;;;;;;;5035150;28;20018;-91
2021/11/19 13:22:12;;;;;;;23.15;12.70;;;;;;;;;;5035081;28;20096;-90
2021/11/19 13:24:40;;;;;;;22.10;11.75;;;;;;;;;;5033906;28;20021;-90
2021/11/19 13:27:09;;;;;;;21.17;12.60;;;;;;;;;;5041087;28;20056;-90
2021/11/19 13:29:41;;;;;;;24.77;13.10;;;;;;;;;;5033622;28;20021;-90
2021/11/19 13:32:19;;;;;;;22.60;12.75;;;;;;;;;;5020782;28;20057;-90
2021/11/19 13:34:47;;;;;;;24.27;12.23;;;;;;;;;;5033623;28;20028;-91
2021/11/19 13:37:31;;;;;;;21.40;11.27;;;;;;;;;;5033397;28;20083;-90
2021/11/19 13:40:16;;;;;;;21.90;12.23;;;;;;;;;;5032625;28;20040;-90
2021/11/19 13:42:50;;;;;;;27.83;13.18;;;;;;;;;;5066200;28;20013;-91
2021/11/19 13:45:28;;;;;;;24.15;12.15;;;;;;;;;;5033501;28;20083;-91
2021/11/19 13:48:12;;;;;;;24.38;11.40;;;;;;;;;;5033378;28;20104;-90
2021/11/19 13:50:58;;;;;;;25.50;11.95;;;;;;;;;;5033441;28;20025;-91
2021/11/19 13:53:26;;;;;;;21.17;11.43;;;;;;;;;;5035175;28;20037;-90
2021/11/19 13:55:55;;;;;;;27.73;12.00;;;;;;;;;;5033200;28;20026;-91
2021/11/19 13:59:03;;;;;;;24.13;12.73;;;;;;;;;;5035066;28;20029;-91
2021/11/19 14:01:38;;;;;;;27.13;13.23;;;;;;;;;;4957518;28;20022;-91
2021/11/19 14:04:05;;;;;;;24.80;13.32;;;;;;;;;;4973750;28;20019;-91
2021/11/19 14:06:33;;;;;;;32.67;14.68;;;;;;;;;;4998793;28;20045;-90
2021/11/19 14:09:09;;;;;;;29.48;14.25;;;;;;;;;;5033233;28;20025;-90
2021/11/19 14:11:36;;;;;;;31.70;15.23;;;;;;;;;;5032983;28;20013;-91
2021/11/19 14:14:13;;;;;;;34.35;15.80;;;;;;;;;;5022185;28;20160;-91
2021/11/19 14:16:40;;;;;;;31.83;14.73;;;;;;;;;;5031231;28;20013;-91
2021/11/19 14:19:09;;;;;;;35.63;14.38;;;;;;;;;;5034183;28;20486;-91
2021/11/19 14:24:24;;;;;;;30.92;15.85;;;;;;;;;;5034296;28;20203;-91
2021/11/19 14:26:52;;;;;;;33.83;15.63;;;;;;;;;;5032810;28;20013;-90
2021/11/19 14:29:19;;;;;;;31.65;16.27;;;;;;;;;;5032857;28;20163;-91
2021/11/19 14:31:50;;;;;;;30.33;16.83;;;;;;;;;;5032803;28;20021;-91